CFB Gagetown, New Brunswick

Past 24 Hour Conditions

This table is a summary of hourly weather conditions for the past 24 hours. This summary includes the following parameters: temperature, humidity, dew point, wind speed and direction, air pressure, visibility and/or wind chill and humidex.
Date / Time
(ADT)
Conditions Temp (°F) Humidity (%) Dew Point (°F) Wind (mph) Pressure (inches) Vis (mi) Humidex
23 September 2014
1:00 Clear 47   74 39 SW 7 29.9 15 *
00:00 Clear 49 67 39 WSW 11 29.8 15 *
22 September 2014
23:00 Mainly Clear 51 65 39 W 8 29.8 15 *
22:00 Cloudy 53 60 39 W 21 gust 32 29.8 15 *
21:00 Cloudy 56 59 42 W 15 gust 21 29.7 15 *
20:00 Cloudy 58 61 44 W 15 gust 21 29.6 15 *
19:00 Cloudy 60 57 45 WSW 16 gust 29 29.6 15 *
18:00 Mostly Cloudy 63 56 47 W 16 gust 30 29.6 15 *
17:00 Mostly Cloudy 69 58 54 WSW 21 gust 31 29.5 15 *
16:00 Mostly Cloudy 70 56 53 WSW 17 gust 25 29.4 15 *
15:00 Mostly Cloudy 74   62 60 SW 16 29.4 15 82
14:00 Mostly Cloudy 71 71 61 WSW 10 gust 19 29.4 15 79
13:00 Light Rain 73 78 66 SW 11 gust 18 29.4 12 85
12:00 Cloudy 71 83 65 SW 15 29.4 12 82
11:00 Cloudy 69 88 65 SW 8 29.4 12 81
10:00 Cloudy 67 90 64 SW 9 29.4 12 *
9:00 Fog 65 93 63 SW 7 29.4 2 *
8:00 Fog 64 94 63 WSW 6 29.4 0.2 *
7:00 Drizzle 64 94 62 WSW 2 29.4 0.1 *
6:00 Light Rain 64 94 62 WSW 3 29.4 0.1 *
5:00 Light Rain 64 94 62 NNW 2 29.4 3 *
4:00 Light Rain 65 93 63 NNE 2 29.4 3 *
3:00 Rain 65 93 63 NE 3 29.5 3 *
2:00 Rain 64 93 62 NE 5 29.5 3 *
1:00 Light Rain 65 92 62 ENE 5 29.6 12 *
N/A
Not available
 ↑ 
Highest temperature
 ↓ 
Lowest temperature
*
Value not significant.

If you require additional historical weather information, please visit Climate Data Online.